sensor_id;sensor_type;location;lat;lon;timestamp;P1;durP1;ratioP1;P2;durP2;ratioP2
44222;SDS011;29895;48.804;9.386;2023-02-04T00:01:33;6.03;;;4.40;;
44222;SDS011;29895;48.804;9.386;2023-02-04T00:03:59;6.32;;;4.13;;
44222;SDS011;29895;48.804;9.386;2023-02-04T00:06:27;7.85;;;4.18;;
44222;SDS011;29895;48.804;9.386;2023-02-04T00:08:53;9.18;;;5.03;;
44222;SDS011;29895;48.804;9.386;2023-02-04T00:11:18;7.60;;;4.72;;
44222;SDS011;29895;48.804;9.386;2023-02-04T00:13:44;7.75;;;4.47;;
44222;SDS011;29895;48.804;9.386;2023-02-04T00:16:10;6.15;;;3.97;;
44222;SDS011;29895;48.804;9.386;2023-02-04T00:18:36;8.43;;;4.32;;
44222;SDS011;29895;48.804;9.386;2023-02-04T00:21:01;8.80;;;4.68;;
44222;SDS011;29895;48.804;9.386;2023-02-04T00:23:27;8.15;;;4.40;;
44222;SDS011;29895;48.804;9.386;2023-02-04T00:25:52;8.40;;;4.30;;
44222;SDS011;29895;48.804;9.386;2023-02-04T00:28:19;5.85;;;3.65;;
44222;SDS011;29895;48.804;9.386;2023-02-04T00:30:45;6.40;;;3.65;;
44222;SDS011;29895;48.804;9.386;2023-02-04T00:33:11;5.97;;;3.50;;
44222;SDS011;29895;48.804;9.386;2023-02-04T00:35:37;5.53;;;3.60;;
44222;SDS011;29895;48.804;9.386;2023-02-04T00:38:03;8.20;;;3.97;;
44222;SDS011;29895;48.804;9.386;2023-02-04T00:40:29;5.60;;;3.83;;
44222;SDS011;29895;48.804;9.386;2023-02-04T00:42:55;6.10;;;3.58;;
44222;SDS011;29895;48.804;9.386;2023-02-04T00:45:21;6.43;;;3.60;;
44222;SDS011;29895;48.804;9.386;2023-02-04T00:47:47;6.50;;;3.47;;
44222;SDS011;29895;48.804;9.386;2023-02-04T00:50:12;5.32;;;3.60;;
44222;SDS011;29895;48.804;9.386;2023-02-04T00:52:38;5.70;;;3.47;;
44222;SDS011;29895;48.804;9.386;2023-02-04T00:55:04;6.25;;;3.72;;
44222;SDS011;29895;48.804;9.386;2023-02-04T00:57:31;6.30;;;3.40;;
44222;SDS011;29895;48.804;9.386;2023-02-04T00:59:57;6.13;;;3.42;;
44222;SDS011;29895;48.804;9.386;2023-02-04T01:02:23;9.13;;;4.22;;
44222;SDS011;29895;48.804;9.386;2023-02-04T01:04:49;6.30;;;3.28;;
44222;SDS011;29895;48.804;9.386;2023-02-04T01:07:15;7.03;;;3.30;;
44222;SDS011;29895;48.804;9.386;2023-02-04T01:09:41;7.38;;;3.50;;
44222;SDS011;29895;48.804;9.386;2023-02-04T01:12:07;6.38;;;3.72;;
44222;SDS011;29895;48.804;9.386;2023-02-04T01:14:33;5.30;;;3.10;;
44222;SDS011;29895;48.804;9.386;2023-02-04T01:17:00;6.22;;;3.17;;
44222;SDS011;29895;48.804;9.386;2023-02-04T01:19:26;5.38;;;2.90;;
44222;SDS011;29895;48.804;9.386;2023-02-04T01:21:51;6.18;;;2.67;;
44222;SDS011;29895;48.804;9.386;2023-02-04T01:24:17;5.88;;;2.90;;
44222;SDS011;29895;48.804;9.386;2023-02-04T01:26:43;6.72;;;2.67;;
44222;SDS011;29895;48.804;9.386;2023-02-04T01:29:08;6.60;;;2.63;;
44222;SDS011;29895;48.804;9.386;2023-02-04T01:31:36;5.85;;;2.70;;
44222;SDS011;29895;48.804;9.386;2023-02-04T01:34:01;7.10;;;3.10;;
44222;SDS011;29895;48.804;9.386;2023-02-04T01:36:27;6.68;;;2.40;;
44222;SDS011;29895;48.804;9.386;2023-02-04T01:38:54;6.80;;;2.42;;
44222;SDS011;29895;48.804;9.386;2023-02-04T01:41:20;5.10;;;2.50;;
44222;SDS011;29895;48.804;9.386;2023-02-04T01:43:47;6.82;;;2.25;;
44222;SDS011;29895;48.804;9.386;2023-02-04T01:46:13;5.05;;;2.33;;
44222;SDS011;29895;48.804;9.386;2023-02-04T01:48:40;4.10;;;2.13;;
44222;SDS011;29895;48.804;9.386;2023-02-04T01:51:07;6.90;;;2.80;;
44222;SDS011;29895;48.804;9.386;2023-02-04T01:53:35;4.25;;;2.00;;
44222;SDS011;29895;48.804;9.386;2023-02-04T01:56:10;4.25;;;2.00;;
44222;SDS011;29895;48.804;9.386;2023-02-04T01:58:44;4.82;;;1.90;;
44222;SDS011;29895;48.804;9.386;2023-02-04T02:01:15;3.13;;;2.17;;
44222;SDS011;29895;48.804;9.386;2023-02-04T02:03:58;5.38;;;1.80;;
44222;SDS011;29895;48.804;9.386;2023-02-04T02:06:24;4.28;;;1.85;;
44222;SDS011;29895;48.804;9.386;2023-02-04T02:08:50;3.63;;;2.13;;
44222;SDS011;29895;48.804;9.386;2023-02-04T02:11:16;5.63;;;2.35;;
44222;SDS011;29895;48.804;9.386;2023-02-04T02:13:42;6.18;;;2.15;;
44222;SDS011;29895;48.804;9.386;2023-02-04T02:16:08;3.58;;;1.98;;
44222;SDS011;29895;48.804;9.386;2023-02-04T02:18:34;4.72;;;2.30;;
44222;SDS011;29895;48.804;9.386;2023-02-04T02:21:03;7.30;;;2.30;;
44222;SDS011;29895;48.804;9.386;2023-02-04T02:26:18;4.45;;;2.30;;
44222;SDS011;29895;48.804;9.386;2023-02-04T02:28:49;5.32;;;2.35;;
44222;SDS011;29895;48.804;9.386;2023-02-04T02:31:16;4.03;;;1.92;;
44222;SDS011;29895;48.804;9.386;2023-02-04T02:33:44;5.35;;;2.20;;
44222;SDS011;29895;48.804;9.386;2023-02-04T02:36:11;5.72;;;2.20;;
44222;SDS011;29895;48.804;9.386;2023-02-04T02:38:38;6.82;;;2.40;;
44222;SDS011;29895;48.804;9.386;2023-02-04T02:41:04;8.00;;;2.05;;
44222;SDS011;29895;48.804;9.386;2023-02-04T02:43:33;5.30;;;2.10;;
44222;SDS011;29895;48.804;9.386;2023-02-04T02:46:01;5.13;;;2.00;;
44222;SDS011;29895;48.804;9.386;2023-02-04T02:48:27;6.43;;;1.70;;
44222;SDS011;29895;48.804;9.386;2023-02-04T02:50:53;6.60;;;1.55;;
44222;SDS011;29895;48.804;9.386;2023-02-04T02:53:19;6.70;;;1.92;;
44222;SDS011;29895;48.804;9.386;2023-02-04T02:55:45;11.40;;;2.65;;
44222;SDS011;29895;48.804;9.386;2023-02-04T02:58:30;5.25;;;1.90;;
44222;SDS011;29895;48.804;9.386;2023-02-04T03:01:00;13.30;;;2.10;;
44222;SDS011;29895;48.804;9.386;2023-02-04T03:03:29;7.60;;;1.92;;
44222;SDS011;29895;48.804;9.386;2023-02-04T03:06:19;9.98;;;1.63;;
44222;SDS011;29895;48.804;9.386;2023-02-04T03:08:46;10.73;;;2.08;;
44222;SDS011;29895;48.804;9.386;2023-02-04T03:11:15;4.85;;;2.00;;
44222;SDS011;29895;48.804;9.386;2023-02-04T03:13:40;4.45;;;1.55;;
44222;SDS011;29895;48.804;9.386;2023-02-04T03:16:07;8.23;;;2.05;;
44222;SDS011;29895;48.804;9.386;2023-02-04T03:18:33;7.47;;;1.83;;
44222;SDS011;29895;48.804;9.386;2023-02-04T03:21:00;7.15;;;2.03;;
44222;SDS011;29895;48.804;9.386;2023-02-04T03:23:26;7.22;;;1.65;;
44222;SDS011;29895;48.804;9.386;2023-02-04T03:25:52;5.47;;;1.58;;
44222;SDS011;29895;48.804;9.386;2023-02-04T03:28:18;7.55;;;2.17;;
44222;SDS011;29895;48.804;9.386;2023-02-04T03:30:44;11.50;;;2.10;;
44222;SDS011;29895;48.804;9.386;2023-02-04T03:33:19;9.82;;;1.70;;
44222;SDS011;29895;48.804;9.386;2023-02-04T03:35:44;9.05;;;2.20;;
44222;SDS011;29895;48.804;9.386;2023-02-04T03:38:11;12.35;;;2.17;;
44222;SDS011;29895;48.804;9.386;2023-02-04T03:40:36;8.85;;;1.85;;
44222;SDS011;29895;48.804;9.386;2023-02-04T03:43:03;11.40;;;2.33;;
44222;SDS011;29895;48.804;9.386;2023-02-04T03:45:29;8.95;;;2.08;;
44222;SDS011;29895;48.804;9.386;2023-02-04T03:47:54;7.75;;;2.08;;
44222;SDS011;29895;48.804;9.386;2023-02-04T03:50:20;7.95;;;2.00;;
44222;SDS011;29895;48.804;9.386;2023-02-04T03:52:45;9.13;;;2.83;;
44222;SDS011;29895;48.804;9.386;2023-02-04T03:55:13;12.15;;;2.65;;
44222;SDS011;29895;48.804;9.386;2023-02-04T03:57:38;10.40;;;2.20;;
44222;SDS011;29895;48.804;9.386;2023-02-04T04:00:04;5.95;;;2.35;;
44222;SDS011;29895;48.804;9.386;2023-02-04T04:02:30;13.90;;;2.28;;
44222;SDS011;29895;48.804;9.386;2023-02-04T04:04:56;12.00;;;2.20;;
44222;SDS011;29895;48.804;9.386;2023-02-04T04:07:21;11.48;;;2.53;;
44222;SDS011;29895;48.804;9.386;2023-02-04T04:09:47;11.38;;;2.20;;
44222;SDS011;29895;48.804;9.386;2023-02-04T04:12:12;10.75;;;2.25;;
44222;SDS011;29895;48.804;9.386;2023-02-04T04:14:38;6.78;;;2.10;;
44222;SDS011;29895;48.804;9.386;2023-02-04T04:17:03;10.55;;;2.75;;
44222;SDS011;29895;48.804;9.386;2023-02-04T04:19:29;11.35;;;2.83;;
44222;SDS011;29895;48.804;9.386;2023-02-04T04:21:57;10.75;;;2.13;;
44222;SDS011;29895;48.804;9.386;2023-02-04T04:24:22;5.50;;;1.90;;
44222;SDS011;29895;48.804;9.386;2023-02-04T04:26:48;10.43;;;2.78;;
44222;SDS011;29895;48.804;9.386;2023-02-04T04:29:14;11.18;;;2.30;;
44222;SDS011;29895;48.804;9.386;2023-02-04T04:31:39;8.38;;;1.85;;
44222;SDS011;29895;48.804;9.386;2023-02-04T04:34:05;10.27;;;2.22;;
44222;SDS011;29895;48.804;9.386;2023-02-04T04:36:30;8.38;;;1.80;;
44222;SDS011;29895;48.804;9.386;2023-02-04T04:38:56;8.00;;;2.70;;
44222;SDS011;29895;48.804;9.386;2023-02-04T04:41:22;11.90;;;2.08;;
44222;SDS011;29895;48.804;9.386;2023-02-04T04:43:47;8.10;;;2.00;;
44222;SDS011;29895;48.804;9.386;2023-02-04T04:46:13;10.82;;;2.08;;
44222;SDS011;29895;48.804;9.386;2023-02-04T04:48:39;12.15;;;2.13;;
44222;SDS011;29895;48.804;9.386;2023-02-04T04:51:04;7.32;;;1.98;;
44222;SDS011;29895;48.804;9.386;2023-02-04T04:53:30;10.93;;;2.20;;
44222;SDS011;29895;48.804;9.386;2023-02-04T04:55:55;6.60;;;1.98;;
44222;SDS011;29895;48.804;9.386;2023-02-04T04:58:21;10.80;;;2.38;;
44222;SDS011;29895;48.804;9.386;2023-02-04T05:00:47;15.13;;;2.10;;
44222;SDS011;29895;48.804;9.386;2023-02-04T05:03:12;9.65;;;2.83;;
44222;SDS011;29895;48.804;9.386;2023-02-04T05:05:38;11.18;;;2.30;;
44222;SDS011;29895;48.804;9.386;2023-02-04T05:08:05;6.80;;;2.05;;
44222;SDS011;29895;48.804;9.386;2023-02-04T05:10:37;9.40;;;2.50;;
44222;SDS011;29895;48.804;9.386;2023-02-04T05:13:03;8.57;;;2.33;;
44222;SDS011;29895;48.804;9.386;2023-02-04T05:15:29;8.88;;;1.90;;
44222;SDS011;29895;48.804;9.386;2023-02-04T05:17:54;9.02;;;2.53;;
44222;SDS011;29895;48.804;9.386;2023-02-04T05:20:20;13.05;;;2.83;;
44222;SDS011;29895;48.804;9.386;2023-02-04T05:22:46;9.93;;;2.35;;
44222;SDS011;29895;48.804;9.386;2023-02-04T05:25:12;13.07;;;2.30;;
44222;SDS011;29895;48.804;9.386;2023-02-04T05:27:40;8.55;;;2.40;;
44222;SDS011;29895;48.804;9.386;2023-02-04T05:30:08;9.20;;;2.13;;
44222;SDS011;29895;48.804;9.386;2023-02-04T05:32:34;8.60;;;2.50;;
44222;SDS011;29895;48.804;9.386;2023-02-04T05:35:00;8.25;;;2.45;;
44222;SDS011;29895;48.804;9.386;2023-02-04T05:37:26;11.75;;;2.72;;
44222;SDS011;29895;48.804;9.386;2023-02-04T05:39:52;8.98;;;2.25;;
44222;SDS011;29895;48.804;9.386;2023-02-04T05:42:17;8.35;;;2.92;;
44222;SDS011;29895;48.804;9.386;2023-02-04T05:44:43;9.38;;;2.20;;
44222;SDS011;29895;48.804;9.386;2023-02-04T05:47:08;11.57;;;2.35;;
44222;SDS011;29895;48.804;9.386;2023-02-04T05:49:34;15.15;;;4.20;;
44222;SDS011;29895;48.804;9.386;2023-02-04T05:52:00;17.55;;;3.55;;
44222;SDS011;29895;48.804;9.386;2023-02-04T05:54:26;11.18;;;2.97;;
44222;SDS011;29895;48.804;9.386;2023-02-04T05:56:51;10.27;;;3.17;;
44222;SDS011;29895;48.804;9.386;2023-02-04T05:59:17;8.75;;;2.92;;
44222;SDS011;29895;48.804;9.386;2023-02-04T06:01:43;12.00;;;3.03;;
44222;SDS011;29895;48.804;9.386;2023-02-04T06:04:08;10.38;;;3.35;;
44222;SDS011;29895;48.804;9.386;2023-02-04T06:06:34;15.63;;;3.30;;
44222;SDS011;29895;48.804;9.386;2023-02-04T06:09:00;11.43;;;3.78;;
44222;SDS011;29895;48.804;9.386;2023-02-04T06:11:26;12.68;;;3.05;;
44222;SDS011;29895;48.804;9.386;2023-02-04T06:13:55;11.93;;;3.00;;
44222;SDS011;29895;48.804;9.386;2023-02-04T06:16:21;9.52;;;3.40;;
44222;SDS011;29895;48.804;9.386;2023-02-04T06:18:47;10.10;;;3.33;;
44222;SDS011;29895;48.804;9.386;2023-02-04T06:21:12;9.52;;;3.10;;
44222;SDS011;29895;48.804;9.386;2023-02-04T06:23:38;13.95;;;3.53;;
44222;SDS011;29895;48.804;9.386;2023-02-04T06:26:04;13.32;;;3.70;;
44222;SDS011;29895;48.804;9.386;2023-02-04T06:28:29;12.82;;;3.80;;
44222;SDS011;29895;48.804;9.386;2023-02-04T06:30:55;13.95;;;4.05;;
44222;SDS011;29895;48.804;9.386;2023-02-04T06:33:20;13.05;;;3.28;;
44222;SDS011;29895;48.804;9.386;2023-02-04T06:35:48;11.27;;;4.85;;
44222;SDS011;29895;48.804;9.386;2023-02-04T06:38:13;10.57;;;3.83;;
44222;SDS011;29895;48.804;9.386;2023-02-04T06:40:39;11.25;;;4.40;;
44222;SDS011;29895;48.804;9.386;2023-02-04T06:43:05;8.48;;;3.47;;
44222;SDS011;29895;48.804;9.386;2023-02-04T06:45:30;16.05;;;4.50;;
44222;SDS011;29895;48.804;9.386;2023-02-04T06:47:56;9.55;;;3.50;;
44222;SDS011;29895;48.804;9.386;2023-02-04T06:50:22;10.75;;;3.55;;
44222;SDS011;29895;48.804;9.386;2023-02-04T06:52:47;9.23;;;3.58;;
44222;SDS011;29895;48.804;9.386;2023-02-04T06:55:14;12.85;;;3.72;;
44222;SDS011;29895;48.804;9.386;2023-02-04T06:57:40;8.52;;;4.00;;
44222;SDS011;29895;48.804;9.386;2023-02-04T07:00:07;14.57;;;4.78;;
44222;SDS011;29895;48.804;9.386;2023-02-04T07:02:34;10.75;;;4.28;;
44222;SDS011;29895;48.804;9.386;2023-02-04T07:05:01;12.82;;;4.53;;
44222;SDS011;29895;48.804;9.386;2023-02-04T07:07:28;11.48;;;3.80;;
44222;SDS011;29895;48.804;9.386;2023-02-04T07:09:54;11.38;;;3.75;;
44222;SDS011;29895;48.804;9.386;2023-02-04T07:12:19;12.10;;;4.13;;
44222;SDS011;29895;48.804;9.386;2023-02-04T07:14:45;13.48;;;4.45;;
44222;SDS011;29895;48.804;9.386;2023-02-04T07:17:11;14.63;;;6.70;;
44222;SDS011;29895;48.804;9.386;2023-02-04T07:19:36;16.10;;;4.78;;
44222;SDS011;29895;48.804;9.386;2023-02-04T07:22:03;10.20;;;4.30;;
44222;SDS011;29895;48.804;9.386;2023-02-04T07:24:29;12.88;;;4.65;;
44222;SDS011;29895;48.804;9.386;2023-02-04T07:26:54;10.00;;;4.50;;
44222;SDS011;29895;48.804;9.386;2023-02-04T07:29:20;15.20;;;5.28;;
44222;SDS011;29895;48.804;9.386;2023-02-04T07:31:46;12.48;;;4.97;;
44222;SDS011;29895;48.804;9.386;2023-02-04T07:34:12;15.45;;;4.97;;
44222;SDS011;29895;48.804;9.386;2023-02-04T07:36:38;12.95;;;5.72;;
44222;SDS011;29895;48.804;9.386;2023-02-04T07:39:04;13.15;;;4.88;;
44222;SDS011;29895;48.804;9.386;2023-02-04T07:41:30;14.45;;;5.47;;
44222;SDS011;29895;48.804;9.386;2023-02-04T07:43:56;16.98;;;4.88;;
44222;SDS011;29895;48.804;9.386;2023-02-04T07:46:22;16.90;;;4.95;;
44222;SDS011;29895;48.804;9.386;2023-02-04T07:48:48;14.02;;;6.03;;
44222;SDS011;29895;48.804;9.386;2023-02-04T07:51:13;15.70;;;5.90;;
44222;SDS011;29895;48.804;9.386;2023-02-04T07:53:39;12.43;;;5.93;;
44222;SDS011;29895;48.804;9.386;2023-02-04T07:56:04;18.55;;;6.38;;
44222;SDS011;29895;48.804;9.386;2023-02-04T07:58:30;11.10;;;5.00;;
44222;SDS011;29895;48.804;9.386;2023-02-04T08:00:57;17.23;;;4.70;;
44222;SDS011;29895;48.804;9.386;2023-02-04T08:03:23;14.02;;;4.28;;
44222;SDS011;29895;48.804;9.386;2023-02-04T08:05:48;14.18;;;4.70;;
44222;SDS011;29895;48.804;9.386;2023-02-04T08:08:14;14.85;;;4.53;;
44222;SDS011;29895;48.804;9.386;2023-02-04T08:10:40;14.80;;;5.03;;
44222;SDS011;29895;48.804;9.386;2023-02-04T08:13:06;12.27;;;4.45;;
44222;SDS011;29895;48.804;9.386;2023-02-04T08:15:31;14.75;;;4.63;;
44222;SDS011;29895;48.804;9.386;2023-02-04T08:17:57;19.13;;;5.22;;
44222;SDS011;29895;48.804;9.386;2023-02-04T08:20:23;20.73;;;5.22;;
44222;SDS011;29895;48.804;9.386;2023-02-04T08:22:48;26.90;;;7.78;;
44222;SDS011;29895;48.804;9.386;2023-02-04T08:25:14;12.35;;;4.57;;
44222;SDS011;29895;48.804;9.386;2023-02-04T08:27:40;13.18;;;5.25;;
44222;SDS011;29895;48.804;9.386;2023-02-04T08:30:07;15.43;;;4.85;;
44222;SDS011;29895;48.804;9.386;2023-02-04T08:32:34;15.93;;;5.38;;
44222;SDS011;29895;48.804;9.386;2023-02-04T08:35:00;23.02;;;5.43;;
44222;SDS011;29895;48.804;9.386;2023-02-04T08:37:26;22.73;;;7.28;;
44222;SDS011;29895;48.804;9.386;2023-02-04T08:39:52;15.20;;;5.78;;
44222;SDS011;29895;48.804;9.386;2023-02-04T08:42:18;19.75;;;5.38;;
44222;SDS011;29895;48.804;9.386;2023-02-04T08:44:44;18.20;;;5.05;;
44222;SDS011;29895;48.804;9.386;2023-02-04T08:47:09;20.75;;;5.20;;
44222;SDS011;29895;48.804;9.386;2023-02-04T08:49:35;20.73;;;5.15;;
44222;SDS011;29895;48.804;9.386;2023-02-04T08:52:01;17.10;;;4.97;;
44222;SDS011;29895;48.804;9.386;2023-02-04T08:54:30;13.48;;;4.97;;
44222;SDS011;29895;48.804;9.386;2023-02-04T08:56:55;19.45;;;5.80;;
44222;SDS011;29895;48.804;9.386;2023-02-04T08:59:21;16.02;;;4.80;;
44222;SDS011;29895;48.804;9.386;2023-02-04T09:01:48;19.85;;;5.22;;
44222;SDS011;29895;48.804;9.386;2023-02-04T09:04:16;13.45;;;4.40;;
44222;SDS011;29895;48.804;9.386;2023-02-04T09:06:43;15.25;;;4.93;;
44222;SDS011;29895;48.804;9.386;2023-02-04T09:09:09;17.52;;;4.45;;
44222;SDS011;29895;48.804;9.386;2023-02-04T09:11:35;12.75;;;4.00;;
44222;SDS011;29895;48.804;9.386;2023-02-04T09:14:01;19.85;;;5.53;;
44222;SDS011;29895;48.804;9.386;2023-02-04T09:16:26;20.85;;;6.10;;
44222;SDS011;29895;48.804;9.386;2023-02-04T09:18:52;15.93;;;4.72;;
44222;SDS011;29895;48.804;9.386;2023-02-04T09:21:18;19.63;;;5.05;;
44222;SDS011;29895;48.804;9.386;2023-02-04T09:23:43;17.63;;;4.55;;
44222;SDS011;29895;48.804;9.386;2023-02-04T09:26:11;14.23;;;3.85;;
44222;SDS011;29895;48.804;9.386;2023-02-04T09:28:37;14.43;;;4.35;;
44222;SDS011;29895;48.804;9.386;2023-02-04T09:31:03;16.67;;;5.25;;
44222;SDS011;29895;48.804;9.386;2023-02-04T09:33:30;12.80;;;3.45;;
44222;SDS011;29895;48.804;9.386;2023-02-04T09:35:57;17.38;;;4.15;;
44222;SDS011;29895;48.804;9.386;2023-02-04T09:38:23;14.25;;;3.03;;
44222;SDS011;29895;48.804;9.386;2023-02-04T09:40:50;14.50;;;4.93;;
44222;SDS011;29895;48.804;9.386;2023-02-04T09:43:20;16.38;;;3.00;;
44222;SDS011;29895;48.804;9.386;2023-02-04T09:45:52;12.52;;;2.78;;
44222;SDS011;29895;48.804;9.386;2023-02-04T09:48:18;17.00;;;3.40;;
44222;SDS011;29895;48.804;9.386;2023-02-04T09:50:46;14.38;;;2.65;;
44222;SDS011;29895;48.804;9.386;2023-02-04T09:53:16;17.48;;;2.70;;
44222;SDS011;29895;48.804;9.386;2023-02-04T09:55:45;11.88;;;2.22;;
44222;SDS011;29895;48.804;9.386;2023-02-04T10:00:41;12.88;;;2.10;;
44222;SDS011;29895;48.804;9.386;2023-02-04T10:03:10;15.65;;;3.53;;
44222;SDS011;29895;48.804;9.386;2023-02-04T10:05:42;17.33;;;2.92;;
44222;SDS011;29895;48.804;9.386;2023-02-04T10:08:13;13.38;;;2.22;;
44222;SDS011;29895;48.804;9.386;2023-02-04T10:10:41;17.38;;;2.55;;
44222;SDS011;29895;48.804;9.386;2023-02-04T10:13:13;14.20;;;3.08;;
44222;SDS011;29895;48.804;9.386;2023-02-04T10:15:45;11.50;;;2.15;;
44222;SDS011;29895;48.804;9.386;2023-02-04T10:18:19;17.33;;;2.58;;
44222;SDS011;29895;48.804;9.386;2023-02-04T10:20:50;10.55;;;2.13;;
44222;SDS011;29895;48.804;9.386;2023-02-04T10:23:20;13.70;;;1.77;;
44222;SDS011;29895;48.804;9.386;2023-02-04T10:25:46;14.88;;;3.33;;
44222;SDS011;29895;48.804;9.386;2023-02-04T10:28:11;10.20;;;2.03;;
44222;SDS011;29895;48.804;9.386;2023-02-04T10:30:38;14.65;;;2.20;;
44222;SDS011;29895;48.804;9.386;2023-02-04T10:33:20;17.15;;;2.70;;
44222;SDS011;29895;48.804;9.386;2023-02-04T10:35:51;11.90;;;2.13;;
44222;SDS011;29895;48.804;9.386;2023-02-04T10:38:19;10.93;;;1.77;;
44222;SDS011;29895;48.804;9.386;2023-02-04T10:40:45;9.98;;;2.20;;
44222;SDS011;29895;48.804;9.386;2023-02-04T10:43:15;15.52;;;3.35;;
44222;SDS011;29895;48.804;9.386;2023-02-04T10:45:43;15.40;;;2.63;;
44222;SDS011;29895;48.804;9.386;2023-02-04T10:48:19;14.75;;;1.90;;
44222;SDS011;29895;48.804;9.386;2023-02-04T10:50:45;14.88;;;2.58;;
44222;SDS011;29895;48.804;9.386;2023-02-04T10:53:14;15.80;;;2.95;;
44222;SDS011;29895;48.804;9.386;2023-02-04T10:56:00;11.75;;;3.22;;
44222;SDS011;29895;48.804;9.386;2023-02-04T10:58:27;10.00;;;2.20;;
44222;SDS011;29895;48.804;9.386;2023-02-04T11:00:54;15.65;;;2.15;;
44222;SDS011;29895;48.804;9.386;2023-02-04T11:03:21;21.00;;;3.03;;
44222;SDS011;29895;48.804;9.386;2023-02-04T11:05:49;19.33;;;2.33;;
44222;SDS011;29895;48.804;9.386;2023-02-04T11:08:28;14.80;;;2.78;;
44222;SDS011;29895;48.804;9.386;2023-02-04T11:11:00;14.13;;;2.00;;
44222;SDS011;29895;48.804;9.386;2023-02-04T11:16:29;14.13;;;2.75;;
44222;SDS011;29895;48.804;9.386;2023-02-04T11:19:00;18.05;;;2.75;;
44222;SDS011;29895;48.804;9.386;2023-02-04T11:24:04;19.23;;;2.45;;
44222;SDS011;29895;48.804;9.386;2023-02-04T11:26:31;18.33;;;2.28;;
44222;SDS011;29895;48.804;9.386;2023-02-04T11:31:27;20.27;;;2.92;;
44222;SDS011;29895;48.804;9.386;2023-02-04T11:39:23;14.55;;;2.85;;
44222;SDS011;29895;48.804;9.386;2023-02-04T11:41:52;18.52;;;3.33;;
44222;SDS011;29895;48.804;9.386;2023-02-04T11:44:18;15.93;;;3.05;;
44222;SDS011;29895;48.804;9.386;2023-02-04T11:46:51;15.82;;;2.47;;
44222;SDS011;29895;48.804;9.386;2023-02-04T11:49:21;15.77;;;2.45;;
44222;SDS011;29895;48.804;9.386;2023-02-04T11:51:50;11.95;;;2.00;;
44222;SDS011;29895;48.804;9.386;2023-02-04T11:56:58;19.55;;;3.67;;
44222;SDS011;29895;48.804;9.386;2023-02-04T11:59:25;19.98;;;3.63;;
44222;SDS011;29895;48.804;9.386;2023-02-04T12:01:51;14.27;;;2.22;;
44222;SDS011;29895;48.804;9.386;2023-02-04T12:04:39;14.80;;;3.55;;
44222;SDS011;29895;48.804;9.386;2023-02-04T12:07:15;16.10;;;2.40;;
44222;SDS011;29895;48.804;9.386;2023-02-04T12:09:48;21.25;;;2.90;;
44222;SDS011;29895;48.804;9.386;2023-02-04T12:12:40;25.25;;;2.83;;
44222;SDS011;29895;48.804;9.386;2023-02-04T12:15:13;16.70;;;4.10;;
44222;SDS011;29895;48.804;9.386;2023-02-04T12:17:45;16.40;;;3.13;;
44222;SDS011;29895;48.804;9.386;2023-02-04T12:20:13;17.17;;;2.58;;
44222;SDS011;29895;48.804;9.386;2023-02-04T12:22:39;21.88;;;3.20;;
44222;SDS011;29895;48.804;9.386;2023-02-04T12:25:05;18.25;;;3.50;;
44222;SDS011;29895;48.804;9.386;2023-02-04T12:27:31;25.23;;;3.17;;
44222;SDS011;29895;48.804;9.386;2023-02-04T12:29:56;13.70;;;2.45;;
44222;SDS011;29895;48.804;9.386;2023-02-04T12:32:22;13.38;;;2.30;;
44222;SDS011;29895;48.804;9.386;2023-02-04T12:34:47;13.13;;;2.67;;
44222;SDS011;29895;48.804;9.386;2023-02-04T12:37:14;12.68;;;2.70;;
44222;SDS011;29895;48.804;9.386;2023-02-04T12:39:40;16.90;;;3.28;;
44222;SDS011;29895;48.804;9.386;2023-02-04T12:42:06;14.68;;;3.15;;
44222;SDS011;29895;48.804;9.386;2023-02-04T12:44:32;15.07;;;2.40;;
44222;SDS011;29895;48.804;9.386;2023-02-04T12:46:59;16.80;;;2.33;;
44222;SDS011;29895;48.804;9.386;2023-02-04T12:49:25;12.10;;;2.42;;
44222;SDS011;29895;48.804;9.386;2023-02-04T12:51:50;13.32;;;2.00;;
44222;SDS011;29895;48.804;9.386;2023-02-04T12:54:16;18.05;;;2.95;;
44222;SDS011;29895;48.804;9.386;2023-02-04T12:56:42;9.98;;;2.35;;
44222;SDS011;29895;48.804;9.386;2023-02-04T12:59:07;9.82;;;2.30;;
44222;SDS011;29895;48.804;9.386;2023-02-04T13:01:33;12.68;;;3.30;;
44222;SDS011;29895;48.804;9.386;2023-02-04T13:03:59;18.27;;;3.15;;
44222;SDS011;29895;48.804;9.386;2023-02-04T13:06:24;9.50;;;2.33;;
44222;SDS011;29895;48.804;9.386;2023-02-04T13:08:50;9.80;;;2.03;;
44222;SDS011;29895;48.804;9.386;2023-02-04T13:11:15;12.95;;;2.15;;
44222;SDS011;29895;48.804;9.386;2023-02-04T13:13:41;17.23;;;2.83;;
44222;SDS011;29895;48.804;9.386;2023-02-04T13:16:07;8.15;;;2.20;;
44222;SDS011;29895;48.804;9.386;2023-02-04T13:18:32;15.25;;;2.65;;
44222;SDS011;29895;48.804;9.386;2023-02-04T13:21:00;9.52;;;2.08;;
44222;SDS011;29895;48.804;9.386;2023-02-04T13:23:25;14.45;;;3.20;;
44222;SDS011;29895;48.804;9.386;2023-02-04T13:25:51;20.70;;;4.40;;
44222;SDS011;29895;48.804;9.386;2023-02-04T13:28:17;16.52;;;2.92;;
44222;SDS011;29895;48.804;9.386;2023-02-04T13:30:42;10.63;;;2.60;;
44222;SDS011;29895;48.804;9.386;2023-02-04T13:33:08;16.42;;;2.80;;
44222;SDS011;29895;48.804;9.386;2023-02-04T13:35:34;15.57;;;2.88;;
44222;SDS011;29895;48.804;9.386;2023-02-04T13:37:59;14.75;;;3.05;;
44222;SDS011;29895;48.804;9.386;2023-02-04T13:40:25;16.70;;;3.08;;
44222;SDS011;29895;48.804;9.386;2023-02-04T13:42:50;14.93;;;2.15;;
44222;SDS011;29895;48.804;9.386;2023-02-04T13:45:16;13.68;;;2.15;;
44222;SDS011;29895;48.804;9.386;2023-02-04T13:47:43;16.27;;;2.17;;
44222;SDS011;29895;48.804;9.386;2023-02-04T13:50:08;9.95;;;2.22;;
44222;SDS011;29895;48.804;9.386;2023-02-04T13:52:34;15.73;;;2.88;;
44222;SDS011;29895;48.804;9.386;2023-02-04T13:55:00;15.43;;;2.90;;
44222;SDS011;29895;48.804;9.386;2023-02-04T13:57:25;15.60;;;2.50;;
44222;SDS011;29895;48.804;9.386;2023-02-04T13:59:51;18.52;;;3.10;;
44222;SDS011;29895;48.804;9.386;2023-02-04T14:02:17;7.93;;;2.17;;
44222;SDS011;29895;48.804;9.386;2023-02-04T14:04:42;11.80;;;2.53;;
44222;SDS011;29895;48.804;9.386;2023-02-04T14:07:08;13.60;;;2.38;;
44222;SDS011;29895;48.804;9.386;2023-02-04T14:09:34;14.82;;;2.53;;
44222;SDS011;29895;48.804;9.386;2023-02-04T14:12:00;15.10;;;2.38;;
44222;SDS011;29895;48.804;9.386;2023-02-04T14:14:25;9.43;;;2.75;;
44222;SDS011;29895;48.804;9.386;2023-02-04T14:16:51;8.65;;;2.22;;
44222;SDS011;29895;48.804;9.386;2023-02-04T14:19:17;16.35;;;2.47;;
44222;SDS011;29895;48.804;9.386;2023-02-04T14:21:43;10.45;;;2.17;;
44222;SDS011;29895;48.804;9.386;2023-02-04T14:24:10;18.50;;;2.33;;
44222;SDS011;29895;48.804;9.386;2023-02-04T14:26:36;10.65;;;2.20;;
44222;SDS011;29895;48.804;9.386;2023-02-04T14:29:01;10.13;;;1.98;;
44222;SDS011;29895;48.804;9.386;2023-02-04T14:31:28;10.20;;;2.00;;
44222;SDS011;29895;48.804;9.386;2023-02-04T14:33:54;11.95;;;2.20;;
44222;SDS011;29895;48.804;9.386;2023-02-04T14:36:20;12.70;;;2.40;;
44222;SDS011;29895;48.804;9.386;2023-02-04T14:38:46;14.85;;;2.50;;
44222;SDS011;29895;48.804;9.386;2023-02-04T14:41:11;18.20;;;2.80;;
44222;SDS011;29895;48.804;9.386;2023-02-04T14:43:40;13.25;;;2.60;;
44222;SDS011;29895;48.804;9.386;2023-02-04T14:46:06;5.95;;;1.83;;
44222;SDS011;29895;48.804;9.386;2023-02-04T14:48:31;7.97;;;1.45;;
44222;SDS011;29895;48.804;9.386;2023-02-04T14:50:57;6.47;;;1.88;;
44222;SDS011;29895;48.804;9.386;2023-02-04T14:53:23;11.75;;;2.28;;
44222;SDS011;29895;48.804;9.386;2023-02-04T14:55:48;10.25;;;2.03;;
44222;SDS011;29895;48.804;9.386;2023-02-04T14:58:14;7.55;;;1.95;;